Austin, TX (78731)

8:16 PM CDT on July 25, 2016 (GMT -0500)
Beverly Hills | | Change Station

Elev 745 ft 30.34 °N, 97.76 °W | Updated 23 seconds ago

Light Thunderstorms and Rain
Light Thunderstorm Rain Mist
75.7 °F
Feels Like 75 °F
N
0.0
Wind Variable Wind from NNW
Gusts 0.0 mph

Today
High -- | Low -- °F
--% Chance of Precip.
Yesterday
High -- | Low -- °F
Precip. -- in
Pressure 29.91 in
Visibility 6.0 miles
Clouds Few 9000 ft
Mostly Cloudy 12000 ft
Heat Index 75 °F
Dew Point 74 °F
Humidity 96%
Rainfall 0.25 in
Snow Depth Not available.
6:45 AM 8:29 PM
Waning Gibbous, 60% visible
METAR KATT 260051Z AUTO 10007KT 6SM -TSRA BR FEW090 BKN120 25/23 A2995 RMK AO2 PK WND 36028/2352 TSE21B49 SLP128 P0056 T02500233
Pressure 29.91 in
Visibility 6.0 miles
Clouds Few 9000 ft
Mostly Cloudy 12000 ft
Heat Index 75 °F
Dew Point 74 °F
Humidity 96%
Rainfall 0.25 in
Snow Depth Not available.
6:45 AM 8:29 PM
Waning Gibbous, 60% visible
METAR KATT 260051Z AUTO 10007KT 6SM -TSRA BR FEW090 BKN120 25/23 A2995 RMK AO2 PK WND 36028/2352 TSE21B49 SLP128 P0056 T02500233

10-Day Weather Forecast

Almanac

Astronomy

Jul. 25, 2016 Rise Set
Actual Time
Civil Twilight
Nautical Twilight
Astronomical Twilight
Moon
Length of Visible Light
Length of Day
Tomorrow will be .
, % of the Moon is Illuminated

Today's Extremes

State Highs State Lows

Community

WunderPhotos

Upload Photos

1,927,484 photos uploaded!

WunderBlog® & News

Nearby

Air Quality

  Air Quality AQ Index Pollutant
Not available.

Snow Depth

Station Depth Elevation

Earthquake Activity

City Distance Mag. Time & Date
Minimum magnitude displayed is 2.5.

Coastal Water Temperatures

Place Temperature

Stations

Nearby Weather Stations

Station Location Temp. Windchill Dew Point Humidity Wind Precip. Elev Updated Type
                   

Watches & Warnings

There are currently no watches in effect.